CheckWX is a tool to help pilots better visualize weather data.  It is not intended as a substitute for an official pre-flight weather briefing.

21:04:44 UTC

FWCL TAF
Chileka International Airport
Blantyre, Malawi
TAF FWCL 160900Z 1612/1718 06009KT 9999 SCT022 BECMG 1612/1614 09008KT 9999 FEW025 SCT080 FM161700 08006KT CAVOK BECMG 1706/1708 08007KT 9999 FEW020 BECMG 1712/1714 04010KT 9999 SCT035

Jul-16@
12:00 UTC

Jul-16 @ 12:00 UTC

Jul-17@
18:00 UTC

Jul-17 @ 18:00 UTC

TAF FWCL 160900Z 1612/1718 06009KT 9999 SCT022
Wind
  • 060° at 9 KTS
Cloud Levels
  • Scattered at 2,200' AGL

Jul-16@
12:00 UTC

Jul-16 @ 12:00 UTC

Jul-16@
17:00 UTC

Jul-16 @ 17:00 UTC

BECMG 1612/1614 09008KT 9999 FEW025 SCT080

Expired

Wind
  • 090° at 8 KTS
Cloud Levels
  • Few at 2,500' AGL
  • Scattered at 8,000' AGL

Jul-16@
17:00 UTC

Jul-16 @ 17:00 UTC

Jul-17@
06:00 UTC

Jul-17 @ 06:00 UTC

FM161700 08006KT CAVOK

From

From Standard forecast or significant change

Wind
  • 080° at 6 KTS
Conditions
No significant weather
Cloud Levels
  • No significant clouds

Jul-17@
06:00 UTC

Jul-17 @ 06:00 UTC

Jul-17@
12:00 UTC

Jul-17 @ 12:00 UTC

BECMG 1706/1708 08007KT 9999 FEW020

Becoming

Becoming Conditions expected by Wed, Jul 17, 2019 @ 08:00 UTC

Wind
  • 080° at 7 KTS
Conditions
No significant weather
Cloud Levels
  • Few at 2,000' AGL

Jul-17@
12:00 UTC

Jul-17 @ 12:00 UTC

Jul-17@
18:00 UTC

Jul-17 @ 18:00 UTC

BECMG 1712/1714 04010KT 9999 SCT035

Becoming

Becoming Conditions expected by Wed, Jul 17, 2019 @ 14:00 UTC

Wind
  • 040° at 10 KTS
Conditions
No significant weather
Cloud Levels
  • Scattered at 3,500' AGL